Time;durP1;ratioP1;P1;durP2;ratioP2;P2;SDS_P1;SDS_P2;PMS_P1;PMS_P2;Temp;Humidity;BMP_temperature;BMP_pressure;BME280_temperature;BME280_humidity;BME280_pressure;Samples;Min_cycle;Max_cycle;Signal;HPM_P1;HPM_P2
2022/11/22 00:02:05;;;;;;;24.88;13.50;;;;;;;;;;5056938;28;20118;-80
2022/11/22 00:04:30;;;;;;;21.95;13.10;;;;;;;;;;5024063;28;20025;-80
2022/11/22 00:06:55;;;;;;;24.58;13.80;;;;;;;;;;5057165;28;20070;-80
2022/11/22 00:09:21;;;;;;;22.75;12.75;;;;;;;;;;5056439;28;20381;-81
2022/11/22 00:11:46;;;;;;;22.60;13.55;;;;;;;;;;5056880;28;20391;-81
2022/11/22 00:14:12;;;;;;;22.10;13.93;;;;;;;;;;5040085;28;20028;-80
2022/11/22 00:16:37;;;;;;;20.70;12.77;;;;;;;;;;5039907;28;20032;-80
2022/11/22 00:19:03;;;;;;;24.65;12.93;;;;;;;;;;5074265;28;20515;-80
2022/11/22 00:21:28;;;;;;;20.67;12.98;;;;;;;;;;5074583;28;20020;-80
2022/11/22 00:23:56;;;;;;;25.30;13.02;;;;;;;;;;5040153;28;20025;-79
2022/11/22 00:26:21;;;;;;;22.95;12.80;;;;;;;;;;5074451;28;20039;-81
2022/11/22 00:28:47;;;;;;;22.13;13.20;;;;;;;;;;5056251;28;20474;-79
2022/11/22 00:31:12;;;;;;;22.20;13.27;;;;;;;;;;5056308;28;20417;-80
2022/11/22 00:33:37;;;;;;;20.92;12.30;;;;;;;;;;5040046;28;20519;-80
2022/11/22 00:36:03;;;;;;;21.92;12.25;;;;;;;;;;5039688;28;20450;-81
2022/11/22 00:38:29;;;;;;;20.77;11.88;;;;;;;;;;5056471;28;20102;-79
2022/11/22 00:40:54;;;;;;;17.90;10.98;;;;;;;;;;5056257;28;20468;-80
2022/11/22 00:43:19;;;;;;;18.05;11.23;;;;;;;;;;5074092;28;20028;-80
2022/11/22 00:45:45;;;;;;;18.77;10.85;;;;;;;;;;5039309;28;20025;-80
2022/11/22 00:48:10;;;;;;;17.88;10.48;;;;;;;;;;5056061;28;20041;-80
2022/11/22 00:50:36;;;;;;;20.90;11.05;;;;;;;;;;5056280;28;20029;-80
2022/11/22 00:53:01;;;;;;;18.05;10.30;;;;;;;;;;5056878;28;20404;-79
2022/11/22 00:55:27;;;;;;;17.00;10.35;;;;;;;;;;5039400;28;20067;-79
2022/11/22 00:57:52;;;;;;;16.65;10.95;;;;;;;;;;5039427;28;20058;-79
2022/11/22 01:00:18;;;;;;;19.23;11.07;;;;;;;;;;5073769;28;20024;-79
2022/11/22 01:02:43;;;;;;;19.73;10.75;;;;;;;;;;5055947;28;20020;-80
2022/11/22 01:05:09;;;;;;;17.73;10.82;;;;;;;;;;5055926;28;20100;-80
2022/11/22 01:07:34;;;;;;;20.50;11.35;;;;;;;;;;5055735;28;20044;-80
2022/11/22 01:09:59;;;;;;;20.45;11.77;;;;;;;;;;5039252;28;20021;-80
2022/11/22 01:12:25;;;;;;;18.60;10.88;;;;;;;;;;5055923;28;20039;-79
2022/11/22 01:14:50;;;;;;;18.20;11.60;;;;;;;;;;5073450;28;20031;-79
2022/11/22 01:17:16;;;;;;;17.77;10.82;;;;;;;;;;5073749;28;20025;-79
2022/11/22 01:19:41;;;;;;;20.23;11.90;;;;;;;;;;5073609;28;20060;-79
2022/11/22 01:22:07;;;;;;;16.90;10.43;;;;;;;;;;5055993;28;20025;-79
2022/11/22 01:24:32;;;;;;;19.70;11.27;;;;;;;;;;5073643;28;20086;-79
2022/11/22 01:26:58;;;;;;;20.55;11.38;;;;;;;;;;5055597;28;20032;-80
2022/11/22 01:29:23;;;;;;;21.48;12.27;;;;;;;;;;5076016;28;20435;-80
2022/11/22 01:31:49;;;;;;;20.63;12.00;;;;;;;;;;5059717;28;20346;-79
2022/11/22 01:34:14;;;;;;;25.38;12.43;;;;;;;;;;5077674;28;20107;-79
2022/11/22 01:36:40;;;;;;;21.23;12.57;;;;;;;;;;5043165;28;20119;-79
2022/11/22 01:39:05;;;;;;;22.55;12.85;;;;;;;;;;5059515;28;20091;-80
2022/11/22 01:41:30;;;;;;;22.80;12.95;;;;;;;;;;5077576;28;20021;-80
2022/11/22 01:43:56;;;;;;;20.92;12.40;;;;;;;;;;5077280;28;20453;-80
2022/11/22 01:46:36;;;;;;;22.02;12.20;;;;;;;;;;5077615;28;20458;-80
2022/11/22 01:49:03;;;;;;;;;;;;;;;;;;5060034;28;20139;-80
2022/11/22 01:51:34;;;;;;;20.50;12.07;;;;;;;;;;5059650;28;20387;-79
2022/11/22 01:53:59;;;;;;;;;;;;;;;;;;5060567;28;20021;-79
2022/11/22 01:56:25;;;;;;;20.90;11.48;;;;;;;;;;5060287;28;19968;-79
2022/11/22 01:58:53;;;;;;;23.23;11.63;;;;;;;;;;5059339;28;20412;-80
2022/11/22 02:01:19;;;;;;;24.10;13.13;;;;;;;;;;5043429;28;20035;-80
2022/11/22 02:03:45;;;;;;;24.67;13.13;;;;;;;;;;5059714;28;20032;-80
2022/11/22 02:06:11;;;;;;;25.00;13.95;;;;;;;;;;5059846;28;20032;-79
2022/11/22 02:08:58;;;;;;;25.42;14.32;;;;;;;;;;5059510;28;20132;-80
2022/11/22 02:11:23;;;;;;;27.00;14.10;;;;;;;;;;5042582;28;20115;-79
2022/11/22 02:13:49;;;;;;;24.02;14.55;;;;;;;;;;5059195;28;20116;-80
2022/11/22 02:16:14;;;;;;;27.52;14.23;;;;;;;;;;5061765;28;20095;-80
2022/11/22 02:18:40;;;;;;;26.35;14.35;;;;;;;;;;5091976;28;20051;-79
2022/11/22 02:21:05;;;;;;;24.25;13.77;;;;;;;;;;5060158;28;20067;-80
2022/11/22 02:23:39;;;;;;;23.90;14.25;;;;;;;;;;5059060;28;20028;-80
2022/11/22 02:26:05;;;;;;;28.20;15.93;;;;;;;;;;5076781;28;20315;-80
2022/11/22 02:28:33;;;;;;;27.60;14.70;;;;;;;;;;5042052;28;20070;-81
2022/11/22 02:30:59;;;;;;;28.98;14.88;;;;;;;;;;5026161;28;20037;-80
2022/11/22 02:33:24;;;;;;;29.17;15.40;;;;;;;;;;5076682;28;20028;-80
2022/11/22 02:35:49;;;;;;;26.63;15.43;;;;;;;;;;5058988;28;20036;-80
2022/11/22 02:38:29;;;;;;;24.95;14.45;;;;;;;;;;5076498;28;20029;-81
2022/11/22 02:41:06;;;;;;;21.48;12.77;;;;;;;;;;5060193;28;20032;-81
2022/11/22 02:43:33;;;;;;;23.88;12.95;;;;;;;;;;5041942;28;20024;-80
2022/11/22 02:46:06;;;;;;;18.90;12.15;;;;;;;;;;5042309;28;20025;-81
2022/11/22 02:48:31;;;;;;;22.00;13.35;;;;;;;;;;5084277;28;20050;-80
2022/11/22 02:50:57;;;;;;;23.60;13.13;;;;;;;;;;5078364;28;20028;-80
2022/11/22 02:53:22;;;;;;;22.63;13.27;;;;;;;;;;5078644;28;20360;-79
2022/11/22 02:55:48;;;;;;;21.08;12.93;;;;;;;;;;5078475;28;20032;-80
2022/11/22 02:58:13;;;;;;;22.98;12.60;;;;;;;;;;5096730;28;20069;-80
2022/11/22 03:00:39;;;;;;;21.50;12.82;;;;;;;;;;5061478;28;20453;-81
2022/11/22 03:03:04;;;;;;;19.42;12.57;;;;;;;;;;5078440;28;20472;-81
2022/11/22 03:05:30;;;;;;;20.60;12.32;;;;;;;;;;5061439;28;20122;-80
2022/11/22 03:07:55;;;;;;;20.20;12.48;;;;;;;;;;5061330;28;20077;-81
2022/11/22 03:10:21;;;;;;;24.42;14.13;;;;;;;;;;5077936;28;20032;-79
2022/11/22 03:12:46;;;;;;;27.50;15.27;;;;;;;;;;5078138;28;20028;-80
2022/11/22 03:15:12;;;;;;;29.48;14.77;;;;;;;;;;5096124;28;20032;-79
2022/11/22 03:17:37;;;;;;;27.85;15.43;;;;;;;;;;5096175;28;20048;-81
2022/11/22 03:20:03;;;;;;;28.15;14.77;;;;;;;;;;5096020;28;20043;-81
2022/11/22 03:22:29;;;;;;;30.73;16.30;;;;;;;;;;5077999;28;20093;-80
2022/11/22 03:24:54;;;;;;;33.97;16.67;;;;;;;;;;5077527;28;20050;-80
2022/11/22 03:27:20;;;;;;;34.38;18.30;;;;;;;;;;5061142;28;20032;-81
2022/11/22 03:29:45;;;;;;;32.95;17.95;;;;;;;;;;5077755;28;20317;-80
2022/11/22 03:32:10;;;;;;;35.10;18.40;;;;;;;;;;5061208;28;20504;-80
2022/11/22 03:34:36;;;;;;;35.33;18.80;;;;;;;;;;5100149;28;20059;-80
2022/11/22 03:37:01;;;;;;;38.03;19.50;;;;;;;;;;5077769;28;20507;-80
2022/11/22 03:39:27;;;;;;;42.85;21.35;;;;;;;;;;5095812;28;20024;-81
2022/11/22 03:41:55;;;;;;;45.60;23.85;;;;;;;;;;5077099;28;20043;-80
2022/11/22 03:44:21;;;;;;;44.30;24.02;;;;;;;;;;5095565;28;20038;-80
2022/11/22 03:46:46;;;;;;;41.92;21.70;;;;;;;;;;5065079;28;20036;-80
2022/11/22 03:49:12;;;;;;;43.25;22.10;;;;;;;;;;5079798;28;20034;-80
2022/11/22 03:51:37;;;;;;;38.03;20.35;;;;;;;;;;5099866;28;20024;-80
2022/11/22 03:54:03;;;;;;;32.20;18.20;;;;;;;;;;5104101;28;20026;-80
2022/11/22 03:56:28;;;;;;;35.72;20.23;;;;;;;;;;5090075;28;20115;-80
2022/11/22 03:58:54;;;;;;;35.95;20.70;;;;;;;;;;5105249;28;20044;-80
2022/11/22 04:01:19;;;;;;;36.90;21.13;;;;;;;;;;5112418;28;20027;-80
2022/11/22 04:03:44;;;;;;;39.17;20.83;;;;;;;;;;5093556;28;20028;-80
2022/11/22 04:06:10;;;;;;;35.55;19.65;;;;;;;;;;5085191;28;20068;-80
2022/11/22 04:08:35;;;;;;;30.27;16.88;;;;;;;;;;5100977;28;20044;-80
2022/11/22 04:11:01;;;;;;;31.30;17.95;;;;;;;;;;5077124;28;20058;-80
2022/11/22 04:15:05;;;;;;;32.75;18.27;;;;;;;;;;5077715;28;20028;-80
2022/11/22 04:16:11;;;;;;;31.45;17.17;;;;;;;;;;5066300;28;20024;-80
2022/11/22 04:18:37;;;;;;;27.98;15.63;;;;;;;;;;5060580;28;20024;-79
2022/11/22 04:25:12;;;;;;;28.33;16.45;;;;;;;;;;5079396;28;20121;-80
2022/11/22 04:26:31;;;;;;;30.10;17.70;;;;;;;;;;5094609;28;20051;-80
2022/11/22 04:28:57;;;;;;;28.77;16.55;;;;;;;;;;5094726;28;20453;-79
2022/11/22 04:34:06;;;;;;;26.45;16.08;;;;;;;;;;5094562;28;20472;-80
2022/11/22 04:36:31;;;;;;;32.50;18.67;;;;;;;;;;5076540;28;20110;-80
2022/11/22 04:38:57;;;;;;;37.08;20.30;;;;;;;;;;5094236;28;20114;-79
2022/11/22 04:41:22;;;;;;;39.90;23.30;;;;;;;;;;5076353;28;20067;-80
2022/11/22 04:46:34;;;;;;;42.30;22.42;;;;;;;;;;5094583;28;20085;-80
2022/11/22 04:49:00;;;;;;;36.75;21.20;;;;;;;;;;5076570;28;20031;-80
2022/11/22 04:54:09;;;;;;;35.10;20.33;;;;;;;;;;5094444;28;20448;-79
2022/11/22 04:56:34;;;;;;;37.35;21.75;;;;;;;;;;5094416;28;20135;-79
2022/11/22 04:59:00;;;;;;;37.17;22.05;;;;;;;;;;5059438;28;20097;-79
2022/11/22 05:01:44;;;;;;;41.72;21.88;;;;;;;;;;5059512;28;20385;-79
2022/11/22 05:04:10;;;;;;;43.55;23.95;;;;;;;;;;5060841;28;20373;-80
2022/11/22 05:06:36;;;;;;;45.05;25.38;;;;;;;;;;5042844;28;20131;-81
2022/11/22 05:09:01;;;;;;;44.42;25.73;;;;;;;;;;5057362;28;20134;-79
2022/11/22 05:11:26;;;;;;;42.47;24.80;;;;;;;;;;5076447;28;20105;-80
2022/11/22 05:13:52;;;;;;;43.97;23.50;;;;;;;;;;5059942;28;20028;-80
2022/11/22 05:16:17;;;;;;;37.63;21.83;;;;;;;;;;5076280;28;20024;-80
2022/11/22 05:18:57;;;;;;;38.10;22.40;;;;;;;;;;5094150;28;20028;-79
2022/11/22 05:21:23;;;;;;;46.08;22.48;;;;;;;;;;5094843;28;20423;-79
2022/11/22 05:23:55;;;;;;;48.42;24.17;;;;;;;;;;5077807;28;20396;-79
2022/11/22 05:26:22;;;;;;;37.05;22.25;;;;;;;;;;5096705;28;20345;-79
2022/11/22 05:28:48;;;;;;;39.90;22.67;;;;;;;;;;5075944;28;20087;-79
2022/11/22 05:31:21;;;;;;;50.38;26.70;;;;;;;;;;5075958;28;20028;-79
2022/11/22 05:33:47;;;;;;;56.17;29.52;;;;;;;;;;5093943;28;20028;-80
2022/11/22 05:36:13;;;;;;;56.80;28.75;;;;;;;;;;5093761;28;20468;-79
2022/11/22 05:38:38;;;;;;;54.45;30.13;;;;;;;;;;5094009;28;20106;-79
2022/11/22 05:41:09;;;;;;;52.45;28.13;;;;;;;;;;5059537;28;20055;-80
2022/11/22 05:43:35;;;;;;;46.05;25.35;;;;;;;;;;5063393;28;20342;-78
2022/11/22 05:46:11;;;;;;;45.10;24.85;;;;;;;;;;5095049;28;20027;-80
2022/11/22 05:48:38;;;;;;;46.60;26.13;;;;;;;;;;5081313;28;20060;-81
2022/11/22 05:51:07;;;;;;;47.72;26.10;;;;;;;;;;5052464;28;20066;-80
2022/11/22 05:53:34;;;;;;;45.95;25.80;;;;;;;;;;5045946;28;20028;-81
2022/11/22 05:56:29;;;;;;;47.25;26.70;;;;;;;;;;5024371;28;20572;-80
2022/11/22 05:58:56;;;;;;;55.08;30.15;;;;;;;;;;5018497;28;20052;-78
2022/11/22 06:01:50;;;;;;;54.60;30.52;;;;;;;;;;5045853;28;20035;-79
2022/11/22 06:04:26;;;;;;;51.22;25.75;;;;;;;;;;5049132;28;20033;-80
2022/11/22 06:06:52;;;;;;;41.78;23.73;;;;;;;;;;5042879;28;20115;-79
2022/11/22 06:09:18;;;;;;;35.75;19.38;;;;;;;;;;5041193;28;20474;-80
2022/11/22 06:11:43;;;;;;;30.58;16.75;;;;;;;;;;5046323;28;20035;-80
2022/11/22 06:14:08;;;;;;;27.92;16.05;;;;;;;;;;5039183;28;20030;-80
2022/11/22 06:16:34;;;;;;;27.70;14.90;;;;;;;;;;5078906;28;20032;-80
2022/11/22 06:18:59;;;;;;;25.35;14.27;;;;;;;;;;5041890;28;20020;-79
2022/11/22 06:21:25;;;;;;;27.13;14.70;;;;;;;;;;5033012;28;20024;-80
2022/11/22 06:23:53;;;;;;;25.80;14.18;;;;;;;;;;5075711;28;20037;-81
2022/11/22 06:26:21;;;;;;;25.65;14.40;;;;;;;;;;5040299;28;20470;-80
2022/11/22 06:28:48;;;;;;;27.08;14.75;;;;;;;;;;5049968;28;20036;-78
2022/11/22 06:31:15;;;;;;;26.65;14.30;;;;;;;;;;5056552;28;20037;-79
2022/11/22 06:33:41;;;;;;;28.75;14.40;;;;;;;;;;5049575;28;20025;-80
2022/11/22 06:36:14;;;;;;;34.10;20.23;;;;;;;;;;5043012;28;20021;-80
2022/11/22 06:38:40;;;;;;;32.40;17.25;;;;;;;;;;5044971;28;20039;-79
2022/11/22 06:41:11;;;;;;;32.97;17.95;;;;;;;;;;5070966;28;20036;-78
2022/11/22 06:43:37;;;;;;;34.42;20.02;;;;;;;;;;5047179;28;20024;-78
2022/11/22 06:46:03;;;;;;;41.58;20.13;;;;;;;;;;5071190;28;20466;-79
2022/11/22 06:48:30;;;;;;;44.80;20.85;;;;;;;;;;5028908;28;20119;-76
2022/11/22 06:51:26;;;;;;;38.47;18.13;;;;;;;;;;5063781;28;20127;-79
2022/11/22 06:53:53;;;;;;;32.05;16.33;;;;;;;;;;5047258;28;20343;-79
2022/11/22 06:56:25;;;;;;;26.73;15.15;;;;;;;;;;5044120;28;20118;-80
2022/11/22 06:58:52;;;;;;;28.88;14.90;;;;;;;;;;5033386;28;20036;-78
2022/11/22 07:01:25;;;;;;;27.92;16.27;;;;;;;;;;5050770;28;20028;-77
2022/11/22 07:03:56;;;;;;;29.70;15.50;;;;;;;;;;5059041;28;20038;-81
2022/11/22 07:06:22;;;;;;;29.95;16.17;;;;;;;;;;5049535;28;20130;-78
2022/11/22 07:08:48;;;;;;;32.00;17.25;;;;;;;;;;5055209;28;20052;-77
2022/11/22 07:11:18;;;;;;;31.20;16.90;;;;;;;;;;5062901;28;20029;-79
2022/11/22 07:13:44;;;;;;;30.17;16.80;;;;;;;;;;5050537;28;20021;-79
2022/11/22 07:16:13;;;;;;;32.33;17.75;;;;;;;;;;5033223;28;20484;-77
2022/11/22 07:18:42;;;;;;;30.80;16.00;;;;;;;;;;5054691;28;20031;-77
2022/11/22 07:21:11;;;;;;;28.35;16.38;;;;;;;;;;5071193;28;20040;-77
2022/11/22 07:23:37;;;;;;;33.35;17.00;;;;;;;;;;5071124;28;20032;-78
2022/11/22 07:26:03;;;;;;;33.40;16.38;;;;;;;;;;5035265;28;20036;-79
2022/11/22 07:28:28;;;;;;;31.77;17.10;;;;;;;;;;5051324;28;20043;-76
2022/11/22 07:30:59;;;;;;;39.53;19.40;;;;;;;;;;5031395;28;20040;-79
2022/11/22 07:33:24;;;;;;;38.22;20.17;;;;;;;;;;5046365;28;20111;-78
2022/11/22 07:35:50;;;;;;;30.52;17.27;;;;;;;;;;5031594;28;20128;-77
2022/11/22 07:38:26;;;;;;;29.92;17.73;;;;;;;;;;5065675;28;20410;-80
2022/11/22 07:40:51;;;;;;;24.63;13.85;;;;;;;;;;5066267;28;20128;-78
2022/11/22 07:43:20;;;;;;;26.90;15.77;;;;;;;;;;5066508;28;20119;-79
2022/11/22 07:45:49;;;;;;;26.08;15.32;;;;;;;;;;5045416;28;20040;-80
2022/11/22 07:48:14;;;;;;;27.15;15.25;;;;;;;;;;5043782;28;20041;-80
2022/11/22 07:50:40;;;;;;;28.75;16.25;;;;;;;;;;5058060;28;20094;-80
2022/11/22 07:53:06;;;;;;;28.08;16.85;;;;;;;;;;5051151;28;20024;-79
2022/11/22 07:55:35;;;;;;;26.58;14.85;;;;;;;;;;5039241;28;20029;-80
2022/11/22 07:58:01;;;;;;;23.70;13.50;;;;;;;;;;5038082;28;20025;-78
2022/11/22 08:00:30;;;;;;;22.30;14.10;;;;;;;;;;5038164;28;20036;-80
2022/11/22 08:02:56;;;;;;;26.02;13.43;;;;;;;;;;5057824;28;20037;-79
2022/11/22 08:05:21;;;;;;;21.52;13.43;;;;;;;;;;5033349;28;20663;-79
2022/11/22 08:07:52;;;;;;;20.52;13.00;;;;;;;;;;5058129;28;20072;-78
2022/11/22 08:10:17;;;;;;;21.35;12.88;;;;;;;;;;5069159;22;20777;-80
2022/11/22 08:12:43;;;;;;;22.38;13.40;;;;;;;;;;5014519;28;20040;-78
2022/11/22 08:15:09;;;;;;;24.80;12.43;;;;;;;;;;5010447;28;20094;-80
2022/11/22 08:17:38;;;;;;;19.02;12.18;;;;;;;;;;5025624;28;20033;-79
2022/11/22 08:20:04;;;;;;;20.42;12.90;;;;;;;;;;5041189;28;20043;-80
2022/11/22 08:22:41;;;;;;;18.45;11.95;;;;;;;;;;5043652;28;20040;-80
2022/11/22 08:25:11;;;;;;;18.65;11.48;;;;;;;;;;5008672;28;20119;-83
2022/11/22 08:27:40;;;;;;;16.05;11.50;;;;;;;;;;5045075;28;20036;-78
2022/11/22 08:30:06;;;;;;;17.35;11.55;;;;;;;;;;5042472;28;20043;-79
2022/11/22 08:32:38;;;;;;;19.73;12.15;;;;;;;;;;5019632;28;20036;-80
2022/11/22 08:35:04;;;;;;;19.10;11.90;;;;;;;;;;5030109;28;20060;-80
2022/11/22 08:37:34;;;;;;;22.25;12.63;;;;;;;;;;5027218;28;20060;-75
2022/11/22 08:39:59;;;;;;;24.83;14.80;;;;;;;;;;5033022;28;20045;-78
2022/11/22 08:42:25;;;;;;;25.40;15.63;;;;;;;;;;5041891;28;20026;-78
2022/11/22 08:44:50;;;;;;;27.95;17.15;;;;;;;;;;5027236;28;20026;-78
2022/11/22 08:47:16;;;;;;;28.17;15.30;;;;;;;;;;4995323;28;20352;-79
2022/11/22 08:49:42;;;;;;;21.80;13.80;;;;;;;;;;5043518;28;20037;-79
2022/11/22 08:52:07;;;;;;;24.67;15.02;;;;;;;;;;5041853;28;20099;-80
2022/11/22 08:54:33;;;;;;;33.25;14.55;;;;;;;;;;4995860;28;20375;-79
2022/11/22 08:56:58;;;;;;;20.35;13.20;;;;;;;;;;4999292;28;20017;-79
2022/11/22 08:59:24;;;;;;;16.58;10.00;;;;;;;;;;5043252;28;20530;-78
2022/11/22 09:01:49;;;;;;;17.45;8.82;;;;;;;;;;5035356;28;20235;-78
2022/11/22 09:04:15;;;;;;;12.05;8.35;;;;;;;;;;5047960;28;20029;-79
2022/11/22 09:06:41;;;;;;;16.13;10.13;;;;;;;;;;5024245;28;20473;-81
2022/11/22 09:09:06;;;;;;;14.77;8.45;;;;;;;;;;5021347;28;20041;-78
2022/11/22 09:11:32;;;;;;;13.27;8.23;;;;;;;;;;5073959;28;20125;-79
2022/11/22 09:13:59;;;;;;;16.35;10.02;;;;;;;;;;5079625;28;20020;-78
2022/11/22 09:16:27;;;;;;;17.10;9.73;;;;;;;;;;5078974;28;20060;-80
2022/11/22 09:18:53;;;;;;;13.93;9.70;;;;;;;;;;5048510;28;20035;-79
2022/11/22 09:21:19;;;;;;;15.20;9.13;;;;;;;;;;5078348;28;20330;-78
2022/11/22 09:23:45;;;;;;;13.40;8.90;;;;;;;;;;5054000;28;20024;-78
2022/11/22 09:26:15;;;;;;;12.05;8.68;;;;;;;;;;5071736;28;20052;-78
2022/11/22 09:28:41;;;;;;;14.75;9.27;;;;;;;;;;5063882;28;20139;-79
2022/11/22 09:31:08;;;;;;;14.27;9.18;;;;;;;;;;5083938;28;20377;-78
2022/11/22 09:33:35;;;;;;;11.98;8.52;;;;;;;;;;5093646;28;20020;-80
2022/11/22 09:36:01;;;;;;;13.05;8.90;;;;;;;;;;5075157;28;20024;-78
2022/11/22 09:38:28;;;;;;;12.88;8.38;;;;;;;;;;5085331;28;20430;-80
2022/11/22 09:40:53;;;;;;;12.52;9.23;;;;;;;;;;5076048;28;20024;-80
2022/11/22 09:43:38;;;;;;;13.30;9.35;;;;;;;;;;5057523;28;20438;-79
2022/11/22 09:46:25;;;;;;;12.38;9.05;;;;;;;;;;5085551;28;20052;-80
2022/11/22 09:48:54;;;;;;;16.27;8.25;;;;;;;;;;5065403;28;20064;-78
2022/11/22 09:51:28;;;;;;;13.40;9.67;;;;;;;;;;5037760;28;20481;-80
2022/11/22 09:54:34;;;;;;;;;;;;;;;;;;;;;
2022/11/22 09:56:57;;;;;;;12.60;8.23;;;;;;;;;;5060727;28;20466;-82
2022/11/22 09:59:27;;;;;;;10.73;7.13;;;;;;;;;;5038012;28;20028;-80
2022/11/22 10:02:20;;;;;;;10.85;7.30;;;;;;;;;;5037978;28;20064;-81
2022/11/22 10:04:59;;;;;;;14.52;8.18;;;;;;;;;;5038382;28;20036;-81
2022/11/22 10:07:44;;;;;;;14.13;7.60;;;;;;;;;;5039216;28;20040;-80
2022/11/22 10:10:46;;;;;;;11.48;7.53;;;;;;;;;;5004953;28;20057;-79
2022/11/22 10:13:18;;;;;;;10.98;7.85;;;;;;;;;;4959575;28;20185;-78
2022/11/22 10:16:18;;;;;;;16.58;8.80;;;;;;;;;;5048354;28;20032;-81
2022/11/22 10:18:58;;;;;;;13.07;7.95;;;;;;;;;;5056219;28;20419;-81
2022/11/22 10:21:23;;;;;;;11.30;8.40;;;;;;;;;;5020632;28;20397;-82
2022/11/22 10:23:49;;;;;;;11.02;8.10;;;;;;;;;;5020459;28;20422;-81
2022/11/22 10:26:24;;;;;;;11.77;7.80;;;;;;;;;;5037444;28;20351;-78
2022/11/22 10:28:59;;;;;;;13.02;8.43;;;;;;;;;;5055628;28;20025;-81
2022/11/22 10:31:43;;;;;;;14.20;8.18;;;;;;;;;;5041521;28;20028;-80
2022/11/22 10:34:21;;;;;;;14.45;8.65;;;;;;;;;;5059606;28;20031;-79
2022/11/22 10:36:52;;;;;;;13.60;9.25;;;;;;;;;;5064437;28;20032;-84
2022/11/22 10:39:26;;;;;;;12.52;8.35;;;;;;;;;;5023118;28;20131;-81
2022/11/22 10:42:21;;;;;;;11.80;8.20;;;;;;;;;;5055892;28;20029;-79
2022/11/22 10:44:59;;;;;;;14.18;8.82;;;;;;;;;;5048295;28;20021;-80
2022/11/22 10:47:35;;;;;;;14.30;9.88;;;;;;;;;;5052345;28;20092;-82
2022/11/22 10:50:08;;;;;;;13.48;9.00;;;;;;;;;;5051698;28;20424;-82
2022/11/22 10:53:00;;;;;;;12.00;8.65;;;;;;;;;;5059255;28;20118;-77
2022/11/22 10:55:31;;;;;;;16.65;9.68;;;;;;;;;;5068471;28;20071;-80
2022/11/22 10:58:14;;;;;;;12.73;9.00;;;;;;;;;;5082824;28;20036;-79
2022/11/22 11:00:52;;;;;;;11.65;8.32;;;;;;;;;;5065577;28;20040;-80
2022/11/22 11:03:30;;;;;;;13.35;8.48;;;;;;;;;;5078864;28;20538;-81
2022/11/22 11:06:18;;;;;;;12.57;9.15;;;;;;;;;;5037747;28;20093;-81
2022/11/22 11:09:04;;;;;;;14.95;9.07;;;;;;;;;;5073206;28;20021;-81
2022/11/22 11:11:30;;;;;;;12.82;9.20;;;;;;;;;;5022842;28;20504;-80
2022/11/22 11:13:57;;;;;;;15.13;9.60;;;;;;;;;;5055190;28;20127;-81
2022/11/22 11:16:24;;;;;;;12.98;9.68;;;;;;;;;;5041696;28;20028;-81
2022/11/22 11:18:55;;;;;;;14.32;9.60;;;;;;;;;;5057338;28;21001;-80
2022/11/22 11:21:21;;;;;;;12.77;8.93;;;;;;;;;;5041179;28;20035;-79
2022/11/22 11:23:47;;;;;;;13.40;9.18;;;;;;;;;;5056544;28;20024;-80
2022/11/22 11:26:25;;;;;;;14.80;8.45;;;;;;;;;;5076481;28;20024;-80
2022/11/22 11:29:11;;;;;;;12.75;8.30;;;;;;;;;;5076044;28;20070;-80
2022/11/22 11:31:49;;;;;;;14.30;9.00;;;;;;;;;;5055454;28;20025;-79
2022/11/22 11:34:18;;;;;;;12.38;8.20;;;;;;;;;;5040404;28;20098;-80
2022/11/22 11:36:44;;;;;;;12.23;8.32;;;;;;;;;;5064619;28;20032;-78
2022/11/22 11:39:23;;;;;;;11.35;8.07;;;;;;;;;;5076442;28;20543;-80
2022/11/22 11:41:49;;;;;;;11.15;7.95;;;;;;;;;;5056464;28;20513;-80
2022/11/22 11:44:30;;;;;;;11.27;8.23;;;;;;;;;;5041508;28;20033;-81
2022/11/22 11:47:03;;;;;;;13.48;9.40;;;;;;;;;;5048798;28;20046;-80
2022/11/22 11:49:30;;;;;;;12.80;8.60;;;;;;;;;;5038501;28;20089;-79
2022/11/22 11:52:07;;;;;;;10.38;7.60;;;;;;;;;;5098345;28;20081;-80
2022/11/22 11:54:45;;;;;;;10.93;7.88;;;;;;;;;;5075885;28;20053;-80
2022/11/22 11:57:13;;;;;;;12.38;7.90;;;;;;;;;;5057524;28;20035;-81
2022/11/22 11:59:38;;;;;;;14.88;7.38;;;;;;;;;;5056651;28;20034;-79
2022/11/22 12:02:23;;;;;;;10.23;6.60;;;;;;;;;;5102858;28;20024;-78
2022/11/22 12:04:53;;;;;;;9.45;7.00;;;;;;;;;;5062741;28;20629;-78
2022/11/22 12:07:39;;;;;;;7.18;5.90;;;;;;;;;;5074174;28;20035;-79
2022/11/22 12:10:46;;;;;;;9.23;6.25;;;;;;;;;;5076135;28;20067;-79
2022/11/22 12:13:49;;;;;;;9.85;6.45;;;;;;;;;;5029397;28;20040;-79
2022/11/22 12:16:31;;;;;;;12.23;8.25;;;;;;;;;;5066805;28;20040;-80
2022/11/22 12:19:28;;;;;;;11.73;8.25;;;;;;;;;;5069997;28;20572;-79
2022/11/22 12:22:01;;;;;;;13.75;8.75;;;;;;;;;;4997563;28;20116;-81
2022/11/22 12:24:32;;;;;;;11.88;7.25;;;;;;;;;;5059916;28;20055;-78
2022/11/22 12:26:57;;;;;;;12.57;7.85;;;;;;;;;;5040495;28;20029;-78
2022/11/22 12:29:24;;;;;;;11.30;7.22;;;;;;;;;;5039431;28;20039;-82
2022/11/22 12:32:14;;;;;;;12.38;7.65;;;;;;;;;;5050209;28;20020;-82
2022/11/22 12:35:08;;;;;;;14.13;8.30;;;;;;;;;;5033552;28;20037;-80
2022/11/22 12:37:38;;;;;;;16.00;8.57;;;;;;;;;;5016369;28;20060;-82
2022/11/22 12:40:10;;;;;;;16.08;10.32;;;;;;;;;;5033092;28;20025;-80
2022/11/22 12:42:50;;;;;;;15.68;8.77;;;;;;;;;;5030751;28;20347;-83
2022/11/22 12:45:23;;;;;;;11.80;8.38;;;;;;;;;;5027936;28;20028;-83
2022/11/22 12:47:49;;;;;;;12.02;7.82;;;;;;;;;;5054447;28;20083;-82
2022/11/22 12:50:29;;;;;;;11.38;7.57;;;;;;;;;;5036088;28;20064;-83
2022/11/22 12:53:34;;;;;;;10.52;7.07;;;;;;;;;;5022710;28;20059;-87
2022/11/22 12:56:09;;;;;;;14.65;7.93;;;;;;;;;;5038742;28;20075;-82
2022/11/22 12:59:00;;;;;;;11.68;8.05;;;;;;;;;;5055131;28;20035;-84
2022/11/22 13:01:34;;;;;;;15.13;9.85;;;;;;;;;;5031371;28;20051;-80
2022/11/22 13:04:24;;;;;;;13.15;8.63;;;;;;;;;;5038881;28;20036;-82
2022/11/22 13:07:17;;;;;;;17.83;10.43;;;;;;;;;;5055926;28;20031;-81
2022/11/22 13:09:52;;;;;;;17.30;10.88;;;;;;;;;;5033316;28;20356;-80
2022/11/22 13:12:30;;;;;;;16.45;10.45;;;;;;;;;;5022277;28;20076;-79
2022/11/22 13:14:55;;;;;;;16.27;9.65;;;;;;;;;;5037284;28;20027;-78
2022/11/22 13:17:22;;;;;;;32.28;15.95;;;;;;;;;;5021269;28;20029;-79
2022/11/22 13:20:15;;;;;;;24.75;14.25;;;;;;;;;;5036435;28;20016;-79
2022/11/22 13:22:43;;;;;;;20.77;11.65;;;;;;;;;;5055879;28;20346;-78
2022/11/22 13:25:30;;;;;;;24.08;13.20;;;;;;;;;;5074477;28;20342;-79
2022/11/22 13:27:58;;;;;;;17.38;10.75;;;;;;;;;;5056439;28;20024;-78
2022/11/22 13:30:25;;;;;;;14.50;9.00;;;;;;;;;;5061281;28;20081;-78
2022/11/22 13:32:52;;;;;;;16.25;9.60;;;;;;;;;;5039521;28;20032;-77
2022/11/22 13:35:47;;;;;;;12.85;8.77;;;;;;;;;;5055920;28;20370;-77
2022/11/22 13:38:16;;;;;;;15.00;8.98;;;;;;;;;;5051969;28;20526;-77
2022/11/22 13:40:46;;;;;;;14.13;8.93;;;;;;;;;;5022711;28;20085;-78
2022/11/22 13:43:14;;;;;;;13.30;9.40;;;;;;;;;;5039032;28;20466;-77
2022/11/22 13:45:49;;;;;;;13.23;8.90;;;;;;;;;;5074552;28;20037;-78
2022/11/22 13:48:41;;;;;;;15.20;9.40;;;;;;;;;;5073713;28;20036;-78
2022/11/22 13:51:07;;;;;;;13.98;8.45;;;;;;;;;;5039708;28;20041;-77
2022/11/22 13:53:35;;;;;;;13.40;9.32;;;;;;;;;;5073545;28;20029;-78
2022/11/22 13:56:21;;;;;;;13.90;8.77;;;;;;;;;;5055975;28;20029;-78
2022/11/22 13:58:47;;;;;;;15.63;9.60;;;;;;;;;;5038956;28;20052;-77
2022/11/22 14:01:28;;;;;;;16.02;10.23;;;;;;;;;;5073707;28;20029;-77
2022/11/22 14:03:54;;;;;;;16.73;10.57;;;;;;;;;;5072953;28;20028;-78
2022/11/22 14:06:27;;;;;;;19.95;13.35;;;;;;;;;;5038775;28;20035;-77
2022/11/22 14:09:15;;;;;;;18.63;12.18;;;;;;;;;;5055401;28;20375;-78
2022/11/22 14:12:04;;;;;;;19.33;11.55;;;;;;;;;;5075774;28;20109;-77
2022/11/22 14:14:36;;;;;;;19.73;11.80;;;;;;;;;;5058333;28;20033;-77
2022/11/22 14:17:17;;;;;;;19.40;11.52;;;;;;;;;;5038803;28;20059;-77
2022/11/22 14:20:15;;;;;;;21.08;11.57;;;;;;;;;;5055306;28;20041;-78
2022/11/22 14:22:41;;;;;;;19.02;11.60;;;;;;;;;;5057981;28;20029;-77
2022/11/22 14:25:43;;;;;;;24.42;15.02;;;;;;;;;;5055434;28;20039;-77
2022/11/22 14:28:38;;;;;;;22.50;13.98;;;;;;;;;;5055516;28;20233;-78
2022/11/22 14:31:22;;;;;;;25.15;16.17;;;;;;;;;;5060294;28;20033;-77
2022/11/22 14:34:17;;;;;;;34.38;19.85;;;;;;;;;;5038880;28;20021;-77
2022/11/22 14:36:43;;;;;;;36.58;19.85;;;;;;;;;;5041530;28;20059;-77
2022/11/22 14:39:43;;;;;;;39.28;21.88;;;;;;;;;;5042679;28;20036;-78
2022/11/22 14:42:41;;;;;;;41.45;22.40;;;;;;;;;;5076711;28;20024;-77
2022/11/22 14:45:09;;;;;;;36.50;19.65;;;;;;;;;;5076798;28;20462;-77
2022/11/22 14:47:52;;;;;;;32.88;17.65;;;;;;;;;;5066602;28;20028;-76
2022/11/22 14:50:36;;;;;;;25.35;15.25;;;;;;;;;;5043154;28;20040;-77
2022/11/22 14:53:13;;;;;;;31.95;17.35;;;;;;;;;;5057969;28;20127;-78
2022/11/22 14:55:38;;;;;;;28.42;16.38;;;;;;;;;;5076067;28;20145;-76
2022/11/22 14:58:06;;;;;;;28.10;16.10;;;;;;;;;;5075655;28;20440;-76